Time;durP1;ratioP1;P1;durP2;ratioP2;P2;SDS_P1;SDS_P2;PMS_P1;PMS_P2;Temp;Humidity;BMP_temperature;BMP_pressure;BME280_temperature;BME280_humidity;BME280_pressure;Samples;Min_cycle;Max_cycle;Signal;HPM_P1;HPM_P2
2022/09/07 00:02:12;;;;;;;5.45;2.42;;;;;;;25.64;54.44;100779.81;4860703;29;20052;-77
2022/09/07 00:04:57;;;;;;;4.43;2.10;;;;;;;25.80;54.20;100782.03;4863878;29;20044;-78
2022/09/07 00:07:42;;;;;;;4.20;2.00;;;;;;;26.06;53.37;100781.25;4858692;29;20056;-78
2022/09/07 00:10:27;;;;;;;4.53;2.58;;;;;;;26.02;53.51;100782.50;4860754;29;20052;-79
2022/09/07 00:13:12;;;;;;;4.25;3.13;;;;;;;25.97;54.48;100783.78;4861275;29;20530;-77
2022/09/07 00:15:58;;;;;;;6.15;2.55;;;;;;;25.86;55.08;100772.75;4864648;29;20116;-79
2022/09/07 00:18:43;;;;;;;5.72;2.90;;;;;;;25.92;54.67;100770.31;4853816;29;20430;-79
2022/09/07 00:21:28;;;;;;;3.08;2.28;;;;;;;25.87;54.34;100767.97;4853305;29;20053;-78
2022/09/07 00:24:13;;;;;;;6.38;2.60;;;;;;;25.92;53.72;100767.53;4849984;29;20057;-79
2022/09/07 00:26:58;;;;;;;6.15;2.70;;;;;;;25.62;54.43;100770.28;4847346;29;20069;-77
2022/09/07 00:29:44;;;;;;;8.02;2.50;;;;;;;25.64;54.61;100765.09;4858474;29;20048;-77
2022/09/07 00:32:29;;;;;;;5.72;2.90;;;;;;;25.78;54.36;100773.28;4852760;29;20052;-79
2022/09/07 00:35:14;;;;;;;10.40;3.22;;;;;;;25.78;54.43;100776.06;4858584;29;20550;-77
2022/09/07 00:38:00;;;;;;;8.55;3.10;;;;;;;25.59;55.50;100783.06;4846618;29;20045;-79
2022/09/07 00:40:46;;;;;;;4.50;3.22;;;;;;;25.54;56.04;100781.50;4848481;29;20057;-78
2022/09/07 00:43:44;;;;;;;7.07;2.88;;;;;;;25.36;56.85;100766.97;4860876;29;20080;-77
2022/09/07 00:46:33;;;;;;;5.65;3.00;;;;;;;25.41;56.71;100768.50;4857260;29;20046;-78
2022/09/07 00:49:21;;;;;;;10.02;2.95;;;;;;;25.33;57.03;100767.03;4863502;29;20076;-80
2022/09/07 00:52:09;;;;;;;6.68;2.58;;;;;;;25.23;57.35;100771.50;4843630;29;20049;-80
2022/09/07 00:54:58;;;;;;;5.60;2.70;;;;;;;25.12;57.54;100785.53;4861713;29;20053;-80
2022/09/07 00:57:48;;;;;;;3.40;2.78;;;;;;;25.13;57.66;100769.63;4863109;29;20562;-78
2022/09/07 01:00:34;;;;;;;3.50;2.97;;;;;;;25.17;57.85;100775.16;4857985;29;20053;-78
2022/09/07 01:03:24;;;;;;;10.35;3.10;;;;;;;25.18;57.73;100774.75;4852341;29;20045;-78
2022/09/07 01:06:18;;;;;;;6.43;3.53;;;;;;;25.18;57.44;100765.59;4847719;29;20424;-79
2022/09/07 01:09:13;;;;;;;4.88;2.70;;;;;;;25.03;58.23;100764.94;4862066;29;20052;-78
2022/09/07 01:12:00;;;;;;;5.35;2.60;;;;;;;24.97;57.89;100767.38;4863011;29;20526;-80
2022/09/07 01:14:49;;;;;;;4.90;2.90;;;;;;;25.23;57.51;100779.06;4862973;29;20517;-78
2022/09/07 01:17:46;;;;;;;12.15;3.53;;;;;;;25.03;58.01;100781.66;4863353;29;20052;-79
2022/09/07 01:20:33;;;;;;;8.35;3.70;;;;;;;24.76;59.03;100775.09;4853455;29;20539;-78
2022/09/07 01:23:43;;;;;;;8.32;4.43;;;;;;;24.81;58.98;100783.00;4852599;29;20056;-79
2022/09/07 01:26:38;;;;;;;11.30;3.50;;;;;;;24.81;58.96;100774.66;4863116;29;20065;-79
2022/09/07 01:29:32;;;;;;;5.30;3.92;;;;;;;24.68;59.33;100768.81;4862877;29;20056;-78
2022/09/07 01:32:34;;;;;;;6.75;4.05;;;;;;;24.81;59.02;100772.66;4865439;29;20053;-79
2022/09/07 01:35:52;;;;;;;9.52;4.85;;;;;;;24.77;59.45;100765.56;4862786;29;20037;-78
2022/09/07 01:38:43;;;;;;;13.68;4.45;;;;;;;24.49;60.30;100770.13;4854428;29;20077;-78
2022/09/07 01:41:37;;;;;;;9.18;3.72;;;;;;;24.53;59.87;100773.66;4874571;24;20046;-76
2022/09/07 01:44:31;;;;;;;7.70;3.50;;;;;;;24.51;59.51;100772.50;4860465;29;20427;-76
2022/09/07 01:47:39;;;;;;;5.47;2.87;;;;;;;24.54;59.44;100778.03;4860384;29;20135;-76
2022/09/07 01:50:37;;;;;;;10.32;2.80;;;;;;;25.08;58.94;100764.50;4874044;29;20044;-75
2022/09/07 01:53:24;;;;;;;4.88;2.53;;;;;;;25.53;57.14;100756.84;4860324;29;20057;-75
2022/09/07 01:56:13;;;;;;;7.40;2.80;;;;;;;25.65;56.40;100749.97;4855035;29;20456;-79
2022/09/07 01:59:16;;;;;;;6.30;2.65;;;;;;;25.76;55.95;100756.97;4872220;29;20051;-76
2022/09/07 02:02:08;;;;;;;3.63;2.40;;;;;;;25.87;55.42;100745.69;4875158;29;20080;-77
2022/09/07 02:05:06;;;;;;;4.70;2.33;;;;;;;25.89;55.33;100744.09;4881115;29;20052;-77
2022/09/07 02:07:57;;;;;;;5.60;2.20;;;;;;;25.93;55.10;100746.81;4871900;29;20430;-78
2022/09/07 02:10:50;;;;;;;4.40;2.55;;;;;;;25.96;55.33;100740.38;4873232;29;20076;-78
2022/09/07 02:13:41;;;;;;;5.38;2.25;;;;;;;25.97;54.96;100739.97;4862173;29;20057;-78
2022/09/07 02:16:28;;;;;;;7.45;2.60;;;;;;;25.99;54.90;100734.00;4857675;29;20171;-78
2022/09/07 02:19:16;;;;;;;3.72;2.58;;;;;;;26.00;54.82;100716.06;4861200;29;20434;-79
2022/09/07 02:22:05;;;;;;;4.43;2.95;;;;;;;25.96;54.83;100709.72;4871487;29;20064;-77
2022/09/07 02:24:54;;;;;;;4.35;2.80;;;;;;;25.70;56.01;100710.53;4848256;29;20049;-77
2022/09/07 02:27:46;;;;;;;3.22;2.20;;;;;;;25.93;55.13;100711.38;4860129;29;20530;-77
2022/09/07 02:30:31;;;;;;;2.80;2.17;;;;;;;25.97;55.11;100706.53;4867639;29;20073;-77
2022/09/07 02:33:16;;;;;;;3.40;2.50;;;;;;;25.97;55.19;100705.75;4863360;29;20064;-77
2022/09/07 02:36:03;;;;;;;4.22;2.38;;;;;;;25.96;55.40;100698.59;4872483;29;20064;-77
2022/09/07 02:38:48;;;;;;;4.55;2.20;;;;;;;25.93;55.15;100700.22;4872599;29;20060;-77
2022/09/07 02:41:35;;;;;;;3.83;2.10;;;;;;;25.96;55.44;100704.94;4859946;29;20045;-77
2022/09/07 02:44:25;;;;;;;5.93;2.50;;;;;;;25.95;55.11;100706.19;4861909;29;20076;-79
2022/09/07 02:47:21;;;;;;;5.45;2.22;;;;;;;25.99;55.11;100697.75;4859549;29;20550;-79
2022/09/07 02:50:09;;;;;;;5.53;2.28;;;;;;;26.00;54.88;100696.56;4875931;29;20044;-78
2022/09/07 02:53:03;;;;;;;5.13;2.45;;;;;;;26.01;54.90;100691.78;4860120;29;20053;-79
2022/09/07 02:55:59;;;;;;;4.00;1.80;;;;;;;26.02;54.56;100693.31;4863241;29;20041;-77
2022/09/07 02:58:44;;;;;;;11.88;2.53;;;;;;;25.89;54.78;100698.69;4864465;29;20289;-78
2022/09/07 03:01:55;;;;;;;5.75;2.88;;;;;;;24.87;58.00;100711.81;4860221;29;20088;-78
2022/09/07 03:04:47;;;;;;;10.88;3.55;;;;;;;24.78;58.64;100703.16;4859150;29;20049;-78
2022/09/07 03:07:38;;;;;;;9.43;4.40;;;;;;;24.83;58.42;100709.06;4860508;29;20542;-77
2022/09/07 03:10:23;;;;;;;15.27;5.45;;;;;;;24.31;60.36;100708.31;4859886;29;20056;-76
2022/09/07 03:13:08;;;;;;;12.00;5.32;;;;;;;24.22;60.73;100711.56;4871854;29;20045;-78
2022/09/07 03:15:53;;;;;;;13.00;6.20;;;;;;;24.01;61.41;100708.13;4869651;29;20049;-79
2022/09/07 03:18:38;;;;;;;13.88;6.57;;;;;;;23.97;61.89;100715.69;4870157;29;20100;-79
2022/09/07 03:21:23;;;;;;;16.67;7.05;;;;;;;23.99;61.84;100716.06;4861656;29;20064;-78
2022/09/07 03:24:08;;;;;;;10.63;7.50;;;;;;;23.86;62.27;100726.84;4861369;29;20056;-77
2022/09/07 03:26:53;;;;;;;12.00;7.70;;;;;;;23.66;63.31;100732.13;4866114;29;20048;-78
2022/09/07 03:29:37;;;;;;;;;;;;;;;24.13;61.65;100733.41;4871839;29;20073;-78
2022/09/07 03:32:22;;;;;;;22.73;6.60;;;;;;;23.99;61.62;100730.75;4870013;29;20362;-77
2022/09/07 03:35:12;;;;;;;4.97;4.13;;;;;;;24.31;61.17;100730.56;4867820;29;20049;-78
2022/09/07 03:37:57;;;;;;;7.63;4.40;;;;;;;24.61;60.28;100729.94;4859940;29;20049;-78
2022/09/07 03:40:41;;;;;;;;;;;;;;;24.63;59.85;100733.09;4867169;29;20056;-77
2022/09/07 03:43:26;;;;;;;14.68;7.05;;;;;;;24.23;60.72;100721.47;4863716;29;20587;-78
2022/09/07 03:46:13;;;;;;;13.77;7.15;;;;;;;23.95;61.97;100718.88;4861438;29;20061;-77
2022/09/07 03:48:58;;;;;;;10.95;6.75;;;;;;;24.12;61.76;100734.66;4855047;29;20415;-78
2022/09/07 03:51:43;;;;;;;7.55;5.43;;;;;;;24.27;61.17;100733.38;4855153;29;20049;-78
2022/09/07 03:54:28;;;;;;;8.70;5.18;;;;;;;24.26;61.31;100736.56;4861705;29;20049;-77
2022/09/07 03:57:13;;;;;;;6.72;4.85;;;;;;;24.54;60.49;100736.34;4859895;29;20068;-78
2022/09/07 03:59:58;;;;;;;7.22;4.78;;;;;;;24.70;60.05;100742.16;4867982;29;20040;-78
2022/09/07 04:02:42;;;;;;;7.47;6.20;;;;;;;24.40;61.06;100739.22;4859340;29;20060;-77
2022/09/07 04:05:27;;;;;;;;;;;;;;;24.82;59.68;100740.88;4861502;29;20052;-77
2022/09/07 04:08:11;;;;;;;9.30;5.47;;;;;;;24.46;60.97;100740.38;4858407;29;19919;-77
2022/09/07 04:10:58;;;;;;;11.27;4.72;;;;;;;24.35;61.40;100745.22;4861735;29;20072;-78
2022/09/07 04:13:44;;;;;;;8.23;6.20;;;;;;;24.11;62.30;100743.38;4864632;29;20076;-77
2022/09/07 04:16:29;;;;;;;7.82;6.18;;;;;;;24.07;62.34;100743.41;4873195;29;20044;-78
2022/09/07 04:19:14;;;;;;;9.43;7.40;;;;;;;24.06;62.30;100746.59;4844759;29;20082;-77
2022/09/07 04:21:59;;;;;;;9.02;7.22;;;;;;;23.97;62.43;100741.47;4849237;29;20419;-78
2022/09/07 04:24:44;;;;;;;13.45;7.25;;;;;;;23.93;62.64;100740.69;4863632;29;20518;-77
2022/09/07 04:27:29;;;;;;;12.48;8.30;;;;;;;24.19;61.52;100736.59;4864259;29;20046;-77
2022/09/07 04:30:14;;;;;;;11.23;7.68;;;;;;;23.97;62.76;100741.47;4857526;29;20041;-78
2022/09/07 04:32:58;;;;;;;14.85;7.90;;;;;;;24.21;62.06;100742.56;4867925;29;20048;-78
2022/09/07 04:35:43;;;;;;;29.15;16.05;;;;;;;24.07;62.38;100739.84;4864683;29;20045;-76
2022/09/07 04:38:29;;;;;;;26.10;13.70;;;;;;;24.21;61.94;100743.34;4864764;29;20053;-77
2022/09/07 04:41:16;;;;;;;33.30;15.65;;;;;;;23.89;63.08;100742.69;4867037;29;20514;-77
2022/09/07 04:44:02;;;;;;;17.27;8.80;;;;;;;24.03;63.07;100734.28;4866936;29;20045;-76
2022/09/07 04:46:47;;;;;;;19.63;10.02;;;;;;;24.18;62.62;100738.59;4861297;29;20526;-77
2022/09/07 04:49:32;;;;;;;16.58;9.77;;;;;;;24.29;61.78;100744.06;4857327;29;20046;-77
2022/09/07 04:52:16;;;;;;;;;;;;;;;24.07;62.38;100748.16;4858799;29;20498;-78
2022/09/07 04:55:01;;;;;;;12.20;9.20;;;;;;;23.74;63.58;100746.75;4873160;29;19919;-77
2022/09/07 04:57:49;;;;;;;21.00;9.70;;;;;;;23.83;63.33;100759.00;4862704;29;20048;-76
2022/09/07 05:00:35;;;;;;;15.07;9.07;;;;;;;23.94;62.83;100756.16;4861908;29;20437;-78
2022/09/07 05:03:20;;;;;;;10.73;6.78;;;;;;;24.40;61.95;100771.78;4865438;29;20730;-78
2022/09/07 05:06:06;;;;;;;15.77;7.88;;;;;;;24.61;60.94;100771.66;4877105;29;20068;-78
2022/09/07 05:08:53;;;;;;;12.68;5.90;;;;;;;24.74;60.35;100760.81;4866977;29;20193;-77
2022/09/07 05:11:37;;;;;;;17.85;8.57;;;;;;;24.86;60.20;100771.44;4863205;29;20041;-78
2022/09/07 05:14:22;;;;;;;17.65;9.18;;;;;;;24.79;60.26;100777.06;4863271;29;20505;-77
2022/09/07 05:17:06;;;;;;;;;;;;;;;25.06;59.09;100787.19;4861384;29;20041;-77
2022/09/07 05:19:51;;;;;;;14.90;8.77;;;;;;;24.94;59.61;100775.78;4861792;29;20317;-77
2022/09/07 05:22:39;;;;;;;16.00;9.27;;;;;;;25.01;59.38;100784.03;4860726;29;20045;-79
2022/09/07 05:25:27;;;;;;;16.70;9.38;;;;;;;24.98;59.75;100774.53;4866156;29;20045;-78
2022/09/07 05:28:12;;;;;;;12.88;8.77;;;;;;;25.02;59.39;100768.94;4864188;29;20045;-78
2022/09/07 05:31:07;;;;;;;15.02;9.50;;;;;;;24.91;60.18;100776.59;4862755;29;20053;-78
2022/09/07 05:33:56;;;;;;;19.23;8.88;;;;;;;25.03;59.76;100776.09;4862435;29;20515;-78
2022/09/07 05:36:41;;;;;;;15.07;10.30;;;;;;;24.98;60.16;100782.88;4869322;29;20037;-77
2022/09/07 05:39:26;;;;;;;22.85;11.30;;;;;;;24.76;61.07;100789.00;4861546;29;20053;-78
2022/09/07 05:42:11;;;;;;;17.30;10.43;;;;;;;24.86;60.87;100788.91;4860138;29;20041;-79
2022/09/07 05:44:56;;;;;;;76.28;21.77;;;;;;;24.72;61.14;100783.47;4874339;29;20049;-79
2022/09/07 05:47:41;;;;;;;38.13;20.05;;;;;;;24.43;62.04;100777.31;4870180;29;20057;-78
2022/09/07 05:50:25;;;;;;;30.92;17.27;;;;;;;24.25;62.79;100788.56;4878078;29;20041;-78
2022/09/07 05:53:11;;;;;;;33.90;17.73;;;;;;;24.26;63.78;100792.16;4863086;29;20057;-77
2022/09/07 05:55:59;;;;;;;36.40;16.83;;;;;;;24.32;63.64;100793.31;4871855;29;20415;-79
2022/09/07 05:58:47;;;;;;;31.45;14.73;;;;;;;24.40;64.03;100794.03;4879473;29;20045;-77
2022/09/07 06:01:34;;;;;;;22.65;13.98;;;;;;;24.48;63.08;100790.03;4876603;29;20534;-77
2022/09/07 06:04:19;;;;;;;29.85;15.43;;;;;;;24.54;62.71;100797.50;4873511;29;20061;-77
2022/09/07 06:07:03;;;;;;;18.45;10.43;;;;;;;24.67;61.67;100798.63;4871863;29;20045;-78
2022/09/07 06:09:48;;;;;;;21.63;11.88;;;;;;;24.58;62.05;100800.28;4879898;29;20053;-77
2022/09/07 06:12:34;;;;;;;19.30;10.77;;;;;;;24.86;61.22;100799.25;4878768;29;20419;-78
2022/09/07 06:15:19;;;;;;;22.42;11.52;;;;;;;24.87;61.22;100798.06;4879736;29;20053;-77
2022/09/07 06:18:04;;;;;;;28.77;15.98;;;;;;;24.89;60.68;100801.25;4879341;29;20037;-76
2022/09/07 06:20:48;;;;;;;29.80;18.73;;;;;;;24.81;61.49;100808.03;4880873;29;20053;-76
2022/09/07 06:23:33;;;;;;;;;;;;;;;24.89;61.07;100804.03;4866467;29;20045;-78
2022/09/07 06:26:18;;;;;;;;;;;;;;;24.91;61.34;100807.97;4867170;29;19920;-77
2022/09/07 06:29:03;;;;;;;41.25;21.42;;;;;;;25.00;60.81;100816.63;4858453;29;19920;-76
2022/09/07 06:31:48;;;;;;;63.42;33.97;;;;;;;24.91;60.87;100823.88;4864484;29;20050;-76
2022/09/07 06:34:32;;;;;;;61.40;32.97;;;;;;;25.24;60.36;100828.78;4871430;29;20443;-76
2022/09/07 06:37:17;;;;;;;64.30;33.10;;;;;;;25.52;59.36;100831.25;4871503;29;20496;-76
2022/09/07 06:40:02;;;;;;;74.35;35.92;;;;;;;25.27;59.80;100836.28;4861865;29;20053;-76
2022/09/07 06:42:47;;;;;;;56.95;27.85;;;;;;;25.13;60.50;100837.22;4877293;29;20052;-76
2022/09/07 06:45:34;;;;;;;53.42;28.13;;;;;;;25.25;60.21;100838.69;4878967;29;20049;-76
2022/09/07 06:48:18;;;;;;;54.88;27.35;;;;;;;25.15;60.38;100836.78;4861430;29;20049;-76
2022/09/07 06:51:09;;;;;;;40.05;21.70;;;;;;;25.17;60.79;100842.75;4866943;29;20045;-76
2022/09/07 06:53:55;;;;;;;36.58;17.30;;;;;;;25.34;60.46;100841.00;4877889;29;20053;-76
2022/09/07 06:56:40;;;;;;;36.35;15.35;;;;;;;25.17;60.84;100847.50;4878244;29;20407;-76
2022/09/07 06:59:25;;;;;;;30.98;15.15;;;;;;;25.30;60.67;100849.38;4869551;29;20057;-76
2022/09/07 07:02:13;;;;;;;22.00;15.10;;;;;;;25.52;59.71;100856.31;4864674;29;20046;-76
2022/09/07 07:04:58;;;;;;;31.60;14.20;;;;;;;25.35;59.99;100857.28;4869660;29;20045;-85
2022/09/07 07:07:43;;;;;;;23.38;12.18;;;;;;;25.54;60.04;100861.47;4851348;29;20046;-76
2022/09/07 07:10:28;;;;;;;;;;;;;;;25.69;59.08;100857.38;4856510;29;20139;-76
2022/09/07 07:13:13;;;;;;;25.53;14.07;;;;;;;25.73;58.49;100860.09;4849868;29;19920;-77
2022/09/07 07:16:06;;;;;;;26.30;13.27;;;;;;;25.97;58.33;100856.25;4869145;29;20652;-76
2022/09/07 07:18:55;;;;;;;24.98;13.15;;;;;;;26.09;57.80;100857.69;4879361;29;20041;-77
2022/09/07 07:21:39;;;;;;;20.20;11.77;;;;;;;26.23;57.18;100860.31;4878613;29;20049;-76
2022/09/07 07:24:24;;;;;;;23.90;14.55;;;;;;;26.16;57.49;100863.19;4867205;29;20057;-76
2022/09/07 07:27:09;;;;;;;26.95;13.43;;;;;;;26.08;57.90;100865.25;4860550;29;20503;-76
2022/09/07 07:29:54;;;;;;;28.77;13.90;;;;;;;26.08;58.34;100873.63;4860321;29;20053;-76
2022/09/07 07:32:39;;;;;;;;;;;;;;;26.27;57.44;100878.59;4859270;29;20041;-80
2022/09/07 07:35:24;;;;;;;351.90;72.20;;;;;;;26.13;57.95;100892.69;4868535;29;19916;-77
2022/09/07 07:38:08;;;;;;;81.30;22.52;;;;;;;26.18;57.82;100886.63;4864508;29;20049;-77
2022/09/07 07:40:53;;;;;;;48.85;15.93;;;;;;;26.17;57.56;100885.06;4896760;23;20033;-82
2022/09/07 07:43:38;;;;;;;35.17;13.70;;;;;;;26.15;57.74;100890.28;4871301;29;20042;-81
2022/09/07 07:46:24;;;;;;;42.53;13.27;;;;;;;26.09;57.83;100891.94;4888793;29;20046;-83
2022/09/07 07:49:09;;;;;;;31.13;11.38;;;;;;;26.18;58.01;100905.38;4881414;29;20045;-81
2022/09/07 07:51:54;;;;;;;21.33;10.73;;;;;;;26.25;57.95;100917.25;4868780;29;20053;-81
2022/09/07 07:54:39;;;;;;;25.23;9.95;;;;;;;26.30;57.78;100916.00;4881232;29;20037;-82
2022/09/07 07:57:24;;;;;;;25.70;9.70;;;;;;;26.27;58.12;100909.25;4861159;29;20061;-82
2022/09/07 08:00:09;;;;;;;;;;;;;;;26.32;58.53;100924.72;4878072;29;20053;-81
2022/09/07 08:02:57;;;;;;;12.82;7.95;;;;;;;26.35;57.79;100927.50;4863527;29;19920;-81
2022/09/07 08:05:42;;;;;;;26.10;9.65;;;;;;;26.58;56.82;100926.78;4872984;29;20053;-82
2022/09/07 08:08:27;;;;;;;19.52;7.57;;;;;;;26.47;57.01;100934.50;4852836;29;20152;-81
2022/09/07 08:11:16;;;;;;;111.57;21.48;;;;;;;26.48;56.40;100918.56;4863033;29;20049;-80
2022/09/07 08:14:04;;;;;;;296.00;57.70;;;;;;;26.39;56.63;100931.03;4872455;29;20053;-81
2022/09/07 08:16:49;;;;;;;212.27;39.22;;;;;;;26.41;56.90;100927.03;4872818;29;20041;-81
2022/09/07 08:19:34;;;;;;;163.60;36.42;;;;;;;26.29;56.67;100929.16;4874934;29;20046;-81
2022/09/07 08:22:18;;;;;;;;;;;;;;;26.36;56.65;100931.06;4873087;29;20054;-81
2022/09/07 08:25:04;;;;;;;108.63;24.25;;;;;;;26.44;56.62;100937.34;4889536;29;19916;-81
2022/09/07 08:27:48;;;;;;;91.22;20.25;;;;;;;26.65;55.72;100926.69;4873997;29;20042;-81
2022/09/07 08:30:33;;;;;;;123.80;29.05;;;;;;;26.85;54.98;100926.81;4873374;29;20046;-81
2022/09/07 08:33:19;;;;;;;81.18;18.70;;;;;;;26.87;53.66;100924.41;4876927;29;20046;-81
2022/09/07 08:36:07;;;;;;;96.80;21.85;;;;;;;26.94;54.23;100929.88;4888276;29;20045;-81
2022/09/07 08:38:52;;;;;;;48.80;11.95;;;;;;;27.07;53.81;100938.47;4873347;29;20042;-81
2022/09/07 08:42:22;;;;;;;27.77;8.48;;;;;;;27.47;51.76;100934.63;4872981;29;20057;-81
2022/09/07 08:45:23;;;;;;;69.10;14.88;;;;;;;27.23;53.35;100924.63;4872591;29;20053;-80
2022/09/07 08:48:13;;;;;;;26.38;9.32;;;;;;;26.59;54.76;100928.38;4872521;29;20050;-81
2022/09/07 08:51:26;;;;;;;14.38;6.78;;;;;;;26.87;54.32;100929.97;4873708;29;20418;-81
2022/09/07 08:54:13;;;;;;;14.73;6.70;;;;;;;27.05;53.73;100924.13;4872759;29;20128;-81
2022/09/07 08:57:02;;;;;;;12.52;6.57;;;;;;;27.03;53.77;100929.34;4873012;29;20045;-81
2022/09/07 09:00:17;;;;;;;18.95;6.10;;;;;;;27.03;53.55;100918.19;4873178;29;20435;-81
2022/09/07 09:03:02;;;;;;;13.67;6.23;;;;;;;27.20;52.84;100915.13;4872294;29;20049;-80
2022/09/07 09:06:17;;;;;;;32.13;8.00;;;;;;;27.14;52.75;100908.44;4873273;29;20045;-82
2022/09/07 09:09:16;;;;;;;11.70;5.93;;;;;;;27.29;52.34;100910.97;4888579;29;20534;-81
2022/09/07 09:12:14;;;;;;;10.55;4.93;;;;;;;27.24;52.75;100904.66;4872369;29;20057;-82
2022/09/07 09:15:29;;;;;;;9.32;4.75;;;;;;;27.27;52.63;100897.47;4872111;29;20064;-82
2022/09/07 09:18:20;;;;;;;6.05;3.70;;;;;;;27.99;50.54;100895.72;4872584;29;20052;-80
2022/09/07 09:21:14;;;;;;;8.32;4.28;;;;;;;27.75;51.23;100885.03;4858117;29;20056;-79
2022/09/07 09:24:10;;;;;;;8.90;3.85;;;;;;;27.93;50.65;100891.09;4856887;29;20550;-79
2022/09/07 09:26:56;;;;;;;4.53;3.10;;;;;;;27.47;51.69;100875.16;4876521;29;20121;-81
2022/09/07 09:29:41;;;;;;;5.18;2.40;;;;;;;27.65;51.54;100878.44;4858898;29;20428;-81
2022/09/07 09:32:41;;;;;;;10.55;3.17;;;;;;;27.91;50.73;100868.34;4852870;29;20049;-81
2022/09/07 09:35:38;;;;;;;17.05;2.92;;;;;;;28.07;48.78;100866.41;4859878;29;20053;-80
2022/09/07 09:38:30;;;;;;;7.25;2.10;;;;;;;28.43;48.28;100869.25;4834382;29;20618;-80
2022/09/07 09:41:15;;;;;;;8.77;2.25;;;;;;;27.81;50.75;100864.53;4838401;29;20057;-81
2022/09/07 09:44:02;;;;;;;5.63;2.45;;;;;;;27.87;49.95;100856.44;4846016;29;20056;-80
2022/09/07 09:46:51;;;;;;;5.82;2.72;;;;;;;27.96;49.82;100846.28;4850163;29;20053;-81
2022/09/07 09:49:39;;;;;;;7.43;1.85;;;;;;;28.41;48.05;100842.94;4843102;29;20049;-81
2022/09/07 09:52:27;;;;;;;5.63;1.77;;;;;;;27.77;50.53;100835.09;4849233;29;20053;-81
2022/09/07 09:55:24;;;;;;;5.38;2.28;;;;;;;35.48;33.66;100851.63;4852078;29;20068;-80
2022/09/07 09:58:36;;;;;;;7.07;2.40;;;;;;;34.06;35.11;100843.69;4873190;29;20049;-82
2022/09/07 10:01:34;;;;;;;5.82;1.60;;;;;;;32.01;39.14;100832.56;4844949;29;20538;-79
2022/09/07 10:04:22;;;;;;;5.80;1.73;;;;;;;31.70;39.69;100830.47;4863570;29;20053;-82
2022/09/07 10:07:21;;;;;;;7.13;1.77;;;;;;;30.66;41.14;100823.22;4852455;29;20417;-80
2022/09/07 10:10:14;;;;;;;4.60;1.58;;;;;;;30.60;41.89;100819.41;4838669;29;20061;-78
2022/09/07 10:13:01;;;;;;;7.50;2.97;;;;;;;30.71;41.90;100822.66;4838471;29;20045;-78
2022/09/07 10:15:53;;;;;;;8.35;1.77;;;;;;;30.45;42.90;100809.84;4849808;29;20415;-79
2022/09/07 10:18:58;;;;;;;3.65;1.33;;;;;;;30.55;42.48;100811.53;4849222;29;20045;-79
2022/09/07 10:21:44;;;;;;;4.43;1.48;;;;;;;30.67;42.07;100807.94;4848864;29;20068;-80
2022/09/07 10:24:38;;;;;;;6.88;1.85;;;;;;;29.11;46.60;100797.66;4850040;29;20057;-80
2022/09/07 10:27:31;;;;;;;6.45;2.22;;;;;;;29.51;44.89;100792.59;4853254;29;20053;-80
2022/09/07 10:30:16;;;;;;;4.35;1.38;;;;;;;29.51;44.90;100790.56;4855431;29;20049;-80
2022/09/07 10:33:09;;;;;;;2.90;1.65;;;;;;;29.64;44.28;100794.22;4852107;29;20057;-80
2022/09/07 10:36:27;;;;;;;6.90;1.67;;;;;;;29.24;45.72;100787.31;4851131;29;20053;-80
2022/09/07 10:39:25;;;;;;;3.92;1.40;;;;;;;29.92;44.23;100786.25;4848052;29;20053;-81
2022/09/07 10:42:19;;;;;;;5.50;1.50;;;;;;;30.21;43.36;100777.72;4850541;29;20056;-80
2022/09/07 10:45:23;;;;;;;3.90;0.97;;;;;;;29.53;42.00;100779.72;4852775;29;20057;-80
2022/09/07 10:48:21;;;;;;;3.42;1.80;;;;;;;29.97;41.70;100774.47;4851088;29;20057;-80
2022/09/07 10:51:20;;;;;;;5.63;1.38;;;;;;;30.18;42.22;100765.38;4853014;29;20053;-80
2022/09/07 10:54:17;;;;;;;5.20;2.47;;;;;;;29.52;45.28;100774.53;4849833;29;20551;-81
2022/09/07 10:57:17;;;;;;;4.88;1.42;;;;;;;29.91;44.25;100770.63;4855906;29;20135;-83
2022/09/07 11:00:10;;;;;;;6.43;1.83;;;;;;;29.87;44.49;100758.72;4856953;29;20056;-82
2022/09/07 11:03:10;;;;;;;3.60;1.15;;;;;;;30.64;42.52;100763.13;4850137;29;20056;-82
2022/09/07 11:06:22;;;;;;;9.10;1.40;;;;;;;30.15;43.53;100755.06;4847670;29;20049;-80
2022/09/07 11:09:30;;;;;;;4.53;1.48;;;;;;;29.24;44.84;100756.50;4854156;29;20048;-76
2022/09/07 11:12:24;;;;;;;9.70;1.90;;;;;;;30.11;43.72;100751.59;4833805;29;20049;-80
2022/09/07 11:15:09;;;;;;;10.90;2.28;;;;;;;29.55;44.52;100757.63;4864841;29;20064;-81
2022/09/07 11:18:00;;;;;;;3.58;1.30;;;;;;;29.56;44.26;100744.41;4835456;29;20045;-80
2022/09/07 11:20:54;;;;;;;5.70;1.58;;;;;;;29.70;44.08;100752.41;4838140;29;20057;-81
2022/09/07 11:23:44;;;;;;;4.00;1.63;;;;;;;29.45;44.87;100747.53;4864232;29;20048;-81
2022/09/07 11:26:36;;;;;;;2.58;1.20;;;;;;;29.55;44.72;100754.84;4839240;29;20057;-81
2022/09/07 11:29:58;;;;;;;3.70;1.83;;;;;;;28.96;45.82;100757.22;4852218;29;20056;-81
2022/09/07 11:32:57;;;;;;;4.05;1.63;;;;;;;29.07;45.34;100764.13;4864978;29;20064;-81
2022/09/07 11:36:00;;;;;;;3.03;1.40;;;;;;;29.10;45.59;100759.69;4854924;29;20057;-81
2022/09/07 11:38:58;;;;;;;2.67;1.77;;;;;;;29.16;45.40;100761.47;4864663;29;20068;-82
2022/09/07 11:41:56;;;;;;;46.03;3.30;;;;;;;29.17;44.48;100756.66;4861517;29;20364;-83
2022/09/07 11:44:47;;;;;;;5.38;1.67;;;;;;;29.30;44.71;100766.72;4855234;29;20053;-83
2022/09/07 11:47:46;;;;;;;6.72;1.58;;;;;;;29.29;44.18;100764.34;4846394;29;20049;-83
2022/09/07 11:50:35;;;;;;;6.38;1.83;;;;;;;29.30;43.83;100761.13;4853772;29;20049;-84
2022/09/07 11:53:26;;;;;;;4.07;1.40;;;;;;;29.30;43.78;100760.31;4840580;29;20052;-85
2022/09/07 11:56:20;;;;;;;3.85;1.50;;;;;;;28.95;44.89;100752.88;4884072;29;20518;-85
2022/09/07 11:59:20;;;;;;;8.10;2.38;;;;;;;29.24;44.28;100757.28;4865730;29;20064;-83
2022/09/07 12:02:14;;;;;;;5.05;1.52;;;;;;;28.99;45.51;100761.97;4854615;29;20311;-83
2022/09/07 12:05:18;;;;;;;5.50;1.67;;;;;;;28.54;46.35;100765.47;4847480;29;20048;-86
2022/09/07 12:08:06;;;;;;;4.13;2.17;;;;;;;28.75;45.80;100761.41;4846867;29;20053;-86
2022/09/07 12:11:08;;;;;;;6.28;2.00;;;;;;;28.45;47.13;100756.88;4849184;29;20064;-84
2022/09/07 12:14:10;;;;;;;4.35;2.03;;;;;;;29.02;45.74;100756.28;4849839;29;20058;-85
2022/09/07 12:17:25;;;;;;;8.52;2.20;;;;;;;29.28;44.81;100762.78;4850819;29;20062;-86
2022/09/07 12:20:14;;;;;;;57.95;3.47;;;;;;;29.08;45.16;100767.72;4847036;29;20052;-84
2022/09/07 12:23:20;;;;;;;7.28;2.05;;;;;;;28.58;46.78;100768.97;4846652;29;20417;-84
2022/09/07 12:26:34;;;;;;;4.55;1.52;;;;;;;28.18;47.81;100761.94;4845981;29;20526;-85
2022/09/07 12:29:22;;;;;;;8.32;1.50;;;;;;;28.05;48.25;100762.59;4848511;29;20052;-85
2022/09/07 12:32:08;;;;;;;18.30;2.63;;;;;;;28.12;47.97;100769.28;4851185;29;20048;-86
2022/09/07 12:34:56;;;;;;;8.60;1.90;;;;;;;28.14;48.18;100764.03;4865188;29;20725;-84
2022/09/07 12:37:42;;;;;;;9.05;1.92;;;;;;;28.26;47.81;100754.94;4855288;29;20056;-85
2022/09/07 12:40:31;;;;;;;5.30;2.22;;;;;;;28.56;47.40;100757.41;4858739;29;20049;-83
2022/09/07 12:43:17;;;;;;;8.52;3.25;;;;;;;28.96;46.14;100751.63;4853728;29;20515;-84
2022/09/07 12:46:02;;;;;;;4.82;2.25;;;;;;;28.91;46.73;100750.94;4827998;29;20049;-83
2022/09/07 12:49:06;;;;;;;3.92;2.35;;;;;;;28.68;47.43;100741.94;4840924;29;20057;-83
2022/09/07 12:52:05;;;;;;;9.00;1.90;;;;;;;28.77;46.95;100723.34;4846832;29;20049;-84
2022/09/07 12:54:58;;;;;;;5.22;2.20;;;;;;;28.73;47.93;100725.44;4837649;29;20049;-82
2022/09/07 12:58:02;;;;;;;30.30;2.92;;;;;;;29.08;46.82;100728.50;4838641;29;20042;-83
2022/09/07 13:01:20;;;;;;;6.15;2.15;;;;;;;29.05;46.24;100729.41;4863353;29;20053;-83
2022/09/07 13:04:32;;;;;;;4.32;1.95;;;;;;;28.98;46.70;100727.56;4839279;29;20053;-82
2022/09/07 13:07:38;;;;;;;6.72;3.13;;;;;;;29.15;46.04;100726.31;4841001;29;20053;-82
2022/09/07 13:10:31;;;;;;;11.02;1.90;;;;;;;28.62;47.33;100719.28;4839679;29;20132;-81